sensor_id;sensor_type;location;lat;lon;timestamp;P1;durP1;ratioP1;P2;durP2;ratioP2
63953;SDS011;50128;52.094;5.232;2022-09-21T00:01:29;6.1;;;2.9;;
63953;SDS011;50128;52.094;5.232;2022-09-21T00:04:44;7.0;;;2.8;;
63953;SDS011;50128;52.094;5.232;2022-09-21T00:06:21;5.9;;;3.0;;
63953;SDS011;50128;52.094;5.232;2022-09-21T00:08:01;6.6;;;2.9;;
63953;SDS011;50128;52.094;5.232;2022-09-21T00:09:38;5.6;;;2.7;;
63953;SDS011;50128;52.094;5.232;2022-09-21T00:12:54;5.7;;;2.9;;
63953;SDS011;50128;52.094;5.232;2022-09-21T00:14:33;5.6;;;2.6;;
63953;SDS011;50128;52.094;5.232;2022-09-21T00:16:09;5.4;;;2.6;;
63953;SDS011;50128;52.094;5.232;2022-09-21T00:19:27;7.3;;;2.9;;
63953;SDS011;50128;52.094;5.232;2022-09-21T00:22:42;6.7;;;3.1;;
63953;SDS011;50128;52.094;5.232;2022-09-21T00:24:19;6.5;;;2.9;;
63953;SDS011;50128;52.094;5.232;2022-09-21T00:27:41;6.7;;;3.1;;
63953;SDS011;50128;52.094;5.232;2022-09-21T00:29:18;7.0;;;3.1;;
63953;SDS011;50128;52.094;5.232;2022-09-21T00:30:54;7.9;;;3.1;;
63953;SDS011;50128;52.094;5.232;2022-09-21T00:32:30;5.4;;;2.5;;
63953;SDS011;50128;52.094;5.232;2022-09-21T00:35:45;6.6;;;2.7;;
63953;SDS011;50128;52.094;5.232;2022-09-21T00:37:21;8.6;;;3.0;;
63953;SDS011;50128;52.094;5.232;2022-09-21T00:39:01;6.9;;;3.1;;
63953;SDS011;50128;52.094;5.232;2022-09-21T00:42:15;6.7;;;3.2;;
63953;SDS011;50128;52.094;5.232;2022-09-21T00:44:27;6.5;;;3.2;;
63953;SDS011;50128;52.094;5.232;2022-09-21T00:46:34;7.0;;;3.1;;
63953;SDS011;50128;52.094;5.232;2022-09-21T00:48:14;7.1;;;2.9;;
63953;SDS011;50128;52.094;5.232;2022-09-21T00:49:52;5.11;;;3.0;;
63953;SDS011;50128;52.094;5.232;2022-09-21T00:51:30;6.7;;;3.0;;
63953;SDS011;50128;52.094;5.232;2022-09-21T00:54:44;5.5;;;2.8;;
63953;SDS011;50128;52.094;5.232;2022-09-21T00:56:27;6.4;;;2.8;;
63953;SDS011;50128;52.094;5.232;2022-09-21T00:58:08;6.3;;;2.7;;
63953;SDS011;50128;52.094;5.232;2022-09-21T00:59:50;5.4;;;2.7;;
63953;SDS011;50128;52.094;5.232;2022-09-21T01:03:07;6.2;;;2.7;;
63953;SDS011;50128;52.094;5.232;2022-09-21T01:04:46;5.11;;;2.9;;
63953;SDS011;50128;52.094;5.232;2022-09-21T01:06:23;5.8;;;2.9;;
63953;SDS011;50128;52.094;5.232;2022-09-21T01:09:41;6.1;;;3.2;;
63953;SDS011;50128;52.094;5.232;2022-09-21T01:11:24;6.5;;;3.5;;
63953;SDS011;50128;52.094;5.232;2022-09-21T01:13:10;5.3;;;2.9;;
63953;SDS011;50128;52.094;5.232;2022-09-21T01:15:00;5.0;;;2.8;;
63953;SDS011;50128;52.094;5.232;2022-09-21T01:16:51;5.5;;;2.7;;
63953;SDS011;50128;52.094;5.232;2022-09-21T01:18:37;6.1;;;3.1;;
63953;SDS011;50128;52.094;5.232;2022-09-21T01:23:15;5.4;;;2.8;;
63953;SDS011;50128;52.094;5.232;2022-09-21T01:25:17;5.4;;;2.8;;
63953;SDS011;50128;52.094;5.232;2022-09-21T01:27:09;6.8;;;3.4;;
63953;SDS011;50128;52.094;5.232;2022-09-21T01:29:32;7.6;;;2.7;;
63953;SDS011;50128;52.094;5.232;2022-09-21T01:31:23;5.9;;;2.9;;
63953;SDS011;50128;52.094;5.232;2022-09-21T01:34:50;7.9;;;3.2;;
63953;SDS011;50128;52.094;5.232;2022-09-21T01:36:32;7.9;;;3.2;;
63953;SDS011;50128;52.094;5.232;2022-09-21T01:38:11;5.6;;;3.0;;
63953;SDS011;50128;52.094;5.232;2022-09-21T01:39:53;6.3;;;2.9;;
63953;SDS011;50128;52.094;5.232;2022-09-21T01:41:34;6.9;;;3.1;;
63953;SDS011;50128;52.094;5.232;2022-09-21T01:45:00;5.8;;;3.2;;
63953;SDS011;50128;52.094;5.232;2022-09-21T01:46:41;5.5;;;3.2;;
63953;SDS011;50128;52.094;5.232;2022-09-21T01:48:22;6.1;;;3.2;;
63953;SDS011;50128;52.094;5.232;2022-09-21T01:50:00;5.9;;;3.1;;
63953;SDS011;50128;52.094;5.232;2022-09-21T01:53:27;6.4;;;3.2;;
63953;SDS011;50128;52.094;5.232;2022-09-21T01:55:09;6.0;;;3.0;;
63953;SDS011;50128;52.094;5.232;2022-09-21T01:56:52;7.7;;;3.4;;
63953;SDS011;50128;52.094;5.232;2022-09-21T01:58:34;7.7;;;3.3;;
63953;SDS011;50128;52.094;5.232;2022-09-21T02:01:56;6.7;;;3.1;;
63953;SDS011;50128;52.094;5.232;2022-09-21T02:03:40;6.3;;;3.4;;
63953;SDS011;50128;52.094;5.232;2022-09-21T02:05:21;5.5;;;3.1;;
63953;SDS011;50128;52.094;5.232;2022-09-21T02:07:00;5.9;;;3.1;;
63953;SDS011;50128;52.094;5.232;2022-09-21T02:10:16;5.7;;;3.2;;
63953;SDS011;50128;52.094;5.232;2022-09-21T02:11:59;7.5;;;3.1;;
63953;SDS011;50128;52.094;5.232;2022-09-21T02:13:38;5.2;;;3.2;;
63953;SDS011;50128;52.094;5.232;2022-09-21T02:15:17;5.9;;;3.1;;
63953;SDS011;50128;52.094;5.232;2022-09-21T02:18:51;5.8;;;3.0;;
63953;SDS011;50128;52.094;5.232;2022-09-21T02:20:41;6.4;;;3.3;;
63953;SDS011;50128;52.094;5.232;2022-09-21T02:22:27;6.2;;;3.1;;
63953;SDS011;50128;52.094;5.232;2022-09-21T02:24:11;5.5;;;3.0;;
63953;SDS011;50128;52.094;5.232;2022-09-21T02:25:55;6.0;;;3.1;;
63953;SDS011;50128;52.094;5.232;2022-09-21T02:27:41;6.4;;;3.4;;
63953;SDS011;50128;52.094;5.232;2022-09-21T02:31:15;5.5;;;3.0;;
63953;SDS011;50128;52.094;5.232;2022-09-21T02:33:02;6.7;;;3.3;;
63953;SDS011;50128;52.094;5.232;2022-09-21T02:34:46;5.7;;;2.9;;
63953;SDS011;50128;52.094;5.232;2022-09-21T02:36:30;5.0;;;3.3;;
63953;SDS011;50128;52.094;5.232;2022-09-21T02:38:16;5.5;;;3.2;;
63953;SDS011;50128;52.094;5.232;2022-09-21T02:41:50;6.1;;;2.9;;
63953;SDS011;50128;52.094;5.232;2022-09-21T02:43:36;6.2;;;3.0;;
63953;SDS011;50128;52.094;5.232;2022-09-21T02:45:18;6.3;;;3.5;;
63953;SDS011;50128;52.094;5.232;2022-09-21T02:46:59;5.5;;;2.9;;
63953;SDS011;50128;52.094;5.232;2022-09-21T02:48:42;4.61;;;2.9;;
63953;SDS011;50128;52.094;5.232;2022-09-21T02:52:16;5.11;;;3.1;;
63953;SDS011;50128;52.094;5.232;2022-09-21T02:53:55;6.4;;;3.0;;
63953;SDS011;50128;52.094;5.232;2022-09-21T02:55:35;5.6;;;3.1;;
63953;SDS011;50128;52.094;5.232;2022-09-21T02:57:14;5.2;;;3.0;;
63953;SDS011;50128;52.094;5.232;2022-09-21T03:00:35;4.7;;;2.9;;
63953;SDS011;50128;52.094;5.232;2022-09-21T03:02:12;4.3;;;2.8;;
63953;SDS011;50128;52.094;5.232;2022-09-21T03:03:48;4.61;;;2.7;;
63953;SDS011;50128;52.094;5.232;2022-09-21T03:05:24;5.4;;;2.8;;
63953;SDS011;50128;52.094;5.232;2022-09-21T03:08:39;6.8;;;3.0;;
63953;SDS011;50128;52.094;5.232;2022-09-21T03:10:16;5.11;;;3.3;;
63953;SDS011;50128;52.094;5.232;2022-09-21T03:11:54;6.5;;;3.3;;
63953;SDS011;50128;52.094;5.232;2022-09-21T03:15:07;4.41;;;2.8;;
63953;SDS011;50128;52.094;5.232;2022-09-21T03:16:44;6.0;;;3.2;;
63953;SDS011;50128;52.094;5.232;2022-09-21T03:18:20;6.5;;;3.3;;
63953;SDS011;50128;52.094;5.232;2022-09-21T03:19:56;5.2;;;3.0;;
63953;SDS011;50128;52.094;5.232;2022-09-21T03:23:10;6.7;;;3.3;;
63953;SDS011;50128;52.094;5.232;2022-09-21T03:24:46;5.9;;;2.9;;
63953;SDS011;50128;52.094;5.232;2022-09-21T03:26:22;5.5;;;3.4;;
63953;SDS011;50128;52.094;5.232;2022-09-21T03:29:36;5.6;;;3.0;;
63953;SDS011;50128;52.094;5.232;2022-09-21T03:31:13;5.2;;;2.8;;
63953;SDS011;50128;52.094;5.232;2022-09-21T03:32:50;4.7;;;2.8;;
63953;SDS011;50128;52.094;5.232;2022-09-21T03:36:03;6.4;;;3.1;;
63953;SDS011;50128;52.094;5.232;2022-09-21T03:37:39;5.0;;;2.7;;
63953;SDS011;50128;52.094;5.232;2022-09-21T03:39:15;8.71;;;3.3;;
63953;SDS011;50128;52.094;5.232;2022-09-21T03:40:52;6.0;;;2.9;;
63953;SDS011;50128;52.094;5.232;2022-09-21T03:44:06;4.91;;;2.7;;
63953;SDS011;50128;52.094;5.232;2022-09-21T03:45:42;5.6;;;3.2;;
63953;SDS011;50128;52.094;5.232;2022-09-21T03:47:19;5.7;;;3.1;;
63953;SDS011;50128;52.094;5.232;2022-09-21T03:50:31;7.6;;;3.3;;
63953;SDS011;50128;52.094;5.232;2022-09-21T03:52:08;4.5;;;2.8;;
63953;SDS011;50128;52.094;5.232;2022-09-21T03:53:45;5.3;;;2.8;;
63953;SDS011;50128;52.094;5.232;2022-09-21T03:56:58;5.8;;;3.2;;
63953;SDS011;50128;52.094;5.232;2022-09-21T03:58:34;5.6;;;3.0;;
63953;SDS011;50128;52.094;5.232;2022-09-21T04:00:11;6.2;;;2.9;;
63953;SDS011;50128;52.094;5.232;2022-09-21T04:01:47;5.8;;;3.1;;
63953;SDS011;50128;52.094;5.232;2022-09-21T04:05:00;5.2;;;3.2;;
63953;SDS011;50128;52.094;5.232;2022-09-21T04:06:37;5.5;;;3.0;;
63953;SDS011;50128;52.094;5.232;2022-09-21T04:08:13;5.7;;;2.8;;
63953;SDS011;50128;52.094;5.232;2022-09-21T04:11:25;5.6;;;2.9;;
63953;SDS011;50128;52.094;5.232;2022-09-21T04:13:02;4.7;;;2.5;;
63953;SDS011;50128;52.094;5.232;2022-09-21T04:14:39;5.3;;;2.7;;
63953;SDS011;50128;52.094;5.232;2022-09-21T04:17:53;6.5;;;2.9;;
63953;SDS011;50128;52.094;5.232;2022-09-21T04:19:29;5.4;;;2.9;;
63953;SDS011;50128;52.094;5.232;2022-09-21T04:21:05;5.2;;;2.9;;
63953;SDS011;50128;52.094;5.232;2022-09-21T04:22:43;6.1;;;3.0;;
63953;SDS011;50128;52.094;5.232;2022-09-21T04:25:56;4.61;;;2.5;;
63953;SDS011;50128;52.094;5.232;2022-09-21T04:27:33;3.9;;;2.4;;
63953;SDS011;50128;52.094;5.232;2022-09-21T04:29:10;4.1;;;2.31;;
63953;SDS011;50128;52.094;5.232;2022-09-21T04:32:22;5.2;;;2.6;;
63953;SDS011;50128;52.094;5.232;2022-09-21T04:33:58;5.4;;;2.8;;
63953;SDS011;50128;52.094;5.232;2022-09-21T04:35:34;5.8;;;2.7;;
63953;SDS011;50128;52.094;5.232;2022-09-21T04:38:47;4.41;;;2.31;;
63953;SDS011;50128;52.094;5.232;2022-09-21T04:40:24;4.5;;;2.1;;
63953;SDS011;50128;52.094;5.232;2022-09-21T04:42:00;4.41;;;2.5;;
63953;SDS011;50128;52.094;5.232;2022-09-21T04:43:36;4.41;;;2.4;;
63953;SDS011;50128;52.094;5.232;2022-09-21T04:46:49;5.2;;;2.31;;
63953;SDS011;50128;52.094;5.232;2022-09-21T04:48:26;4.8;;;2.21;;
63953;SDS011;50128;52.094;5.232;2022-09-21T04:50:02;5.3;;;2.4;;
63953;SDS011;50128;52.094;5.232;2022-09-21T04:53:15;4.5;;;2.21;;
63953;SDS011;50128;52.094;5.232;2022-09-21T04:54:52;6.0;;;2.9;;
63953;SDS011;50128;52.094;5.232;2022-09-21T04:56:29;4.41;;;2.31;;
63953;SDS011;50128;52.094;5.232;2022-09-21T04:59:41;4.61;;;2.7;;
63953;SDS011;50128;52.094;5.232;2022-09-21T05:01:17;4.5;;;2.21;;
63953;SDS011;50128;52.094;5.232;2022-09-21T05:02:53;5.5;;;2.8;;
63953;SDS011;50128;52.094;5.232;2022-09-21T05:04:29;4.7;;;2.6;;
63953;SDS011;50128;52.094;5.232;2022-09-21T05:07:42;6.8;;;2.4;;
63953;SDS011;50128;52.094;5.232;2022-09-21T05:10:23;5.3;;;2.31;;
63953;SDS011;50128;52.094;5.232;2022-09-21T05:12:00;4.8;;;2.6;;
63953;SDS011;50128;52.094;5.232;2022-09-21T05:13:36;7.1;;;2.5;;
63953;SDS011;50128;52.094;5.232;2022-09-21T05:15:12;6.9;;;2.7;;
63953;SDS011;50128;52.094;5.232;2022-09-21T05:18:24;4.8;;;2.8;;
63953;SDS011;50128;52.094;5.232;2022-09-21T05:20:01;5.0;;;2.8;;
63953;SDS011;50128;52.094;5.232;2022-09-21T05:21:38;6.3;;;2.9;;
63953;SDS011;50128;52.094;5.232;2022-09-21T05:24:50;5.9;;;3.1;;
63953;SDS011;50128;52.094;5.232;2022-09-21T05:26:26;4.91;;;3.0;;
63953;SDS011;50128;52.094;5.232;2022-09-21T05:28:03;5.2;;;3.0;;
63953;SDS011;50128;52.094;5.232;2022-09-21T05:29:40;4.7;;;2.9;;
63953;SDS011;50128;52.094;5.232;2022-09-21T05:33:07;6.1;;;3.0;;
63953;SDS011;50128;52.094;5.232;2022-09-21T05:34:52;5.11;;;2.7;;
63953;SDS011;50128;52.094;5.232;2022-09-21T05:36:39;9.4;;;2.9;;
63953;SDS011;50128;52.094;5.232;2022-09-21T05:38:23;6.3;;;3.2;;
63953;SDS011;50128;52.094;5.232;2022-09-21T05:40:01;5.3;;;3.0;;
63953;SDS011;50128;52.094;5.232;2022-09-21T05:44:52;5.6;;;3.2;;
63953;SDS011;50128;52.094;5.232;2022-09-21T05:46:32;5.8;;;3.1;;
63953;SDS011;50128;52.094;5.232;2022-09-21T05:49:55;5.0;;;3.0;;
63953;SDS011;50128;52.094;5.232;2022-09-21T05:51:42;4.8;;;2.8;;
63953;SDS011;50128;52.094;5.232;2022-09-21T05:53:33;5.5;;;2.8;;
63953;SDS011;50128;52.094;5.232;2022-09-21T05:55:31;6.2;;;3.4;;
63953;SDS011;50128;52.094;5.232;2022-09-21T05:57:22;8.6;;;3.5;;
63953;SDS011;50128;52.094;5.232;2022-09-21T05:59:13;6.8;;;3.4;;
63953;SDS011;50128;52.094;5.232;2022-09-21T06:01:14;5.8;;;3.0;;
63953;SDS011;50128;52.094;5.232;2022-09-21T06:03:16;4.7;;;2.9;;
63953;SDS011;50128;52.094;5.232;2022-09-21T06:06:45;5.11;;;2.8;;
63953;SDS011;50128;52.094;5.232;2022-09-21T06:08:21;4.8;;;3.3;;
63953;SDS011;50128;52.094;5.232;2022-09-21T06:09:57;7.0;;;3.3;;
63953;SDS011;50128;52.094;5.232;2022-09-21T06:11:33;6.7;;;2.9;;
63953;SDS011;50128;52.094;5.232;2022-09-21T06:14:45;8.81;;;3.5;;
63953;SDS011;50128;52.094;5.232;2022-09-21T06:16:22;5.3;;;3.1;;
63953;SDS011;50128;52.094;5.232;2022-09-21T06:17:58;6.7;;;3.1;;
63953;SDS011;50128;52.094;5.232;2022-09-21T06:21:10;7.4;;;3.3;;
63953;SDS011;50128;52.094;5.232;2022-09-21T06:22:46;6.4;;;3.5;;
63953;SDS011;50128;52.094;5.232;2022-09-21T06:24:23;8.0;;;3.4;;
63953;SDS011;50128;52.094;5.232;2022-09-21T06:27:35;6.4;;;3.4;;
63953;SDS011;50128;52.094;5.232;2022-09-21T06:29:11;7.4;;;3.7;;
63953;SDS011;50128;52.094;5.232;2022-09-21T06:30:49;7.0;;;4.0;;
63953;SDS011;50128;52.094;5.232;2022-09-21T06:32:26;7.2;;;4.2;;
63953;SDS011;50128;52.094;5.232;2022-09-21T06:35:39;6.7;;;4.1;;
63953;SDS011;50128;52.094;5.232;2022-09-21T06:37:16;7.2;;;4.1;;
63953;SDS011;50128;52.094;5.232;2022-09-21T06:38:52;7.3;;;4.0;;
63953;SDS011;50128;52.094;5.232;2022-09-21T06:42:05;6.4;;;3.6;;
63953;SDS011;50128;52.094;5.232;2022-09-21T06:43:42;7.0;;;4.2;;
63953;SDS011;50128;52.094;5.232;2022-09-21T06:45:18;6.7;;;4.1;;
63953;SDS011;50128;52.094;5.232;2022-09-21T06:48:31;7.0;;;4.61;;
63953;SDS011;50128;52.094;5.232;2022-09-21T06:50:09;8.2;;;5.3;;
63953;SDS011;50128;52.094;5.232;2022-09-21T06:51:46;7.2;;;5.2;;
63953;SDS011;50128;52.094;5.232;2022-09-21T06:53:22;8.0;;;4.91;;
63953;SDS011;50128;52.094;5.232;2022-09-21T06:56:34;9.1;;;5.2;;
63953;SDS011;50128;52.094;5.232;2022-09-21T06:58:11;8.31;;;4.91;;
63953;SDS011;50128;52.094;5.232;2022-09-21T06:59:47;8.31;;;4.7;;
63953;SDS011;50128;52.094;5.232;2022-09-21T07:02:59;8.31;;;4.7;;
63953;SDS011;50128;52.094;5.232;2022-09-21T07:04:36;7.0;;;4.41;;
63953;SDS011;50128;52.094;5.232;2022-09-21T07:06:13;7.2;;;4.41;;
63953;SDS011;50128;52.094;5.232;2022-09-21T07:09:31;6.4;;;4.3;;
63953;SDS011;50128;52.094;5.232;2022-09-21T07:11:07;7.9;;;4.0;;
63953;SDS011;50128;52.094;5.232;2022-09-21T07:12:43;7.8;;;3.9;;
63953;SDS011;50128;52.094;5.232;2022-09-21T07:14:21;7.5;;;3.7;;
63953;SDS011;50128;52.094;5.232;2022-09-21T07:17:39;7.2;;;3.6;;
63953;SDS011;50128;52.094;5.232;2022-09-21T07:19:15;7.3;;;3.7;;
63953;SDS011;50128;52.094;5.232;2022-09-21T07:20:52;6.3;;;3.3;;
63953;SDS011;50128;52.094;5.232;2022-09-21T07:22:29;8.2;;;3.8;;
63953;SDS011;50128;52.094;5.232;2022-09-21T07:25:44;6.9;;;3.4;;
63953;SDS011;50128;52.094;5.232;2022-09-21T07:27:24;6.7;;;3.5;;
63953;SDS011;50128;52.094;5.232;2022-09-21T07:29:02;7.4;;;3.5;;
63953;SDS011;50128;52.094;5.232;2022-09-21T07:32:16;7.8;;;3.8;;
63953;SDS011;50128;52.094;5.232;2022-09-21T07:33:55;6.4;;;3.3;;
63953;SDS011;50128;52.094;5.232;2022-09-21T07:35:32;5.2;;;3.0;;
63953;SDS011;50128;52.094;5.232;2022-09-21T07:37:08;6.4;;;3.2;;
63953;SDS011;50128;52.094;5.232;2022-09-21T07:40:21;5.8;;;2.6;;
63953;SDS011;50128;52.094;5.232;2022-09-21T07:41:57;6.0;;;2.8;;
63953;SDS011;50128;52.094;5.232;2022-09-21T07:43:33;6.7;;;2.6;;
63953;SDS011;50128;52.094;5.232;2022-09-21T07:46:47;5.6;;;2.6;;
63953;SDS011;50128;52.094;5.232;2022-09-21T07:48:23;6.3;;;2.7;;
63953;SDS011;50128;52.094;5.232;2022-09-21T07:50:00;4.8;;;2.4;;
63953;SDS011;50128;52.094;5.232;2022-09-21T07:53:16;7.5;;;2.5;;
63953;SDS011;50128;52.094;5.232;2022-09-21T07:54:52;6.1;;;2.6;;
63953;SDS011;50128;52.094;5.232;2022-09-21T07:56:28;6.1;;;2.4;;
63953;SDS011;50128;52.094;5.232;2022-09-21T07:59:10;6.5;;;2.5;;
63953;SDS011;50128;52.094;5.232;2022-09-21T08:03:17;5.4;;;2.21;;
63953;SDS011;50128;52.094;5.232;2022-09-21T08:04:53;6.1;;;2.1;;
63953;SDS011;50128;52.094;5.232;2022-09-21T08:06:32;5.11;;;1.8;;
63953;SDS011;50128;52.094;5.232;2022-09-21T08:09:48;5.6;;;2.31;;
63953;SDS011;50128;52.094;5.232;2022-09-21T08:11:26;4.91;;;1.8;;
63953;SDS011;50128;52.094;5.232;2022-09-21T08:13:04;4.7;;;1.5;;
63953;SDS011;50128;52.094;5.232;2022-09-21T08:16:18;5.4;;;1.8;;
63953;SDS011;50128;52.094;5.232;2022-09-21T08:17:55;5.8;;;1.7;;
63953;SDS011;50128;52.094;5.232;2022-09-21T08:19:32;4.7;;;1.6;;
63953;SDS011;50128;52.094;5.232;2022-09-21T08:21:09;4.1;;;1.6;;
63953;SDS011;50128;52.094;5.232;2022-09-21T08:24:24;7.7;;;1.6;;
63953;SDS011;50128;52.094;5.232;2022-09-21T08:26:02;3.9;;;1.2;;
63953;SDS011;50128;52.094;5.232;2022-09-21T08:27:41;4.7;;;1.4;;
63953;SDS011;50128;52.094;5.232;2022-09-21T08:30:53;4.5;;;1.2;;
63953;SDS011;50128;52.094;5.232;2022-09-21T08:32:33;4.5;;;1.2;;
63953;SDS011;50128;52.094;5.232;2022-09-21T08:34:09;4.7;;;1.5;;
63953;SDS011;50128;52.094;5.232;2022-09-21T08:35:50;6.8;;;1.3;;
63953;SDS011;50128;52.094;5.232;2022-09-21T08:39:05;5.2;;;1.4;;
63953;SDS011;50128;52.094;5.232;2022-09-21T08:40:42;4.2;;;1.5;;
63953;SDS011;50128;52.094;5.232;2022-09-21T08:42:24;5.5;;;1.5;;
63953;SDS011;50128;52.094;5.232;2022-09-21T08:44:14;5.2;;;1.2;;
63953;SDS011;50128;52.094;5.232;2022-09-21T08:47:35;5.8;;;1.4;;
63953;SDS011;50128;52.094;5.232;2022-09-21T08:49:15;6.5;;;1.9;;
63953;SDS011;50128;52.094;5.232;2022-09-21T08:50:56;5.11;;;1.3;;
63953;SDS011;50128;52.094;5.232;2022-09-21T08:52:36;5.3;;;1.5;;
63953;SDS011;50128;52.094;5.232;2022-09-21T08:56:01;5.9;;;1.3;;
63953;SDS011;50128;52.094;5.232;2022-09-21T08:57:37;3.6;;;1.0;;
63953;SDS011;50128;52.094;5.232;2022-09-21T08:59:14;5.9;;;1.2;;
63953;SDS011;50128;52.094;5.232;2022-09-21T09:00:52;4.3;;;1.2;;
63953;SDS011;50128;52.094;5.232;2022-09-21T09:05:02;5.8;;;1.2;;
63953;SDS011;50128;52.094;5.232;2022-09-21T09:09:52;5.0;;;0.9;;
63953;SDS011;50128;52.094;5.232;2022-09-21T09:11:45;4.7;;;1.0;;
63953;SDS011;50128;52.094;5.232;2022-09-21T09:13:40;3.8;;;0.9;;
63953;SDS011;50128;52.094;5.232;2022-09-21T09:15:42;4.7;;;1.11;;
63953;SDS011;50128;52.094;5.232;2022-09-21T09:19:25;4.2;;;1.0;;
63953;SDS011;50128;52.094;5.232;2022-09-21T09:21:10;5.11;;;1.0;;
63953;SDS011;50128;52.094;5.232;2022-09-21T09:23:01;4.5;;;1.11;;
63953;SDS011;50128;52.094;5.232;2022-09-21T09:24:45;4.91;;;1.11;;
63953;SDS011;50128;52.094;5.232;2022-09-21T09:26:26;4.8;;;1.2;;
63953;SDS011;50128;52.094;5.232;2022-09-21T09:28:16;7.4;;;1.4;;
63953;SDS011;50128;52.094;5.232;2022-09-21T09:31:47;5.2;;;1.0;;
63953;SDS011;50128;52.094;5.232;2022-09-21T09:33:27;4.2;;;0.8;;
63953;SDS011;50128;52.094;5.232;2022-09-21T09:35:21;5.0;;;1.0;;
63953;SDS011;50128;52.094;5.232;2022-09-21T09:37:06;5.0;;;1.11;;
63953;SDS011;50128;52.094;5.232;2022-09-21T09:38:48;5.5;;;1.2;;
63953;SDS011;50128;52.094;5.232;2022-09-21T09:42:53;4.3;;;1.0;;
63953;SDS011;50128;52.094;5.232;2022-09-21T09:46:33;4.3;;;1.0;;
63953;SDS011;50128;52.094;5.232;2022-09-21T09:48:31;4.8;;;1.0;;
63953;SDS011;50128;52.094;5.232;2022-09-21T09:50:23;4.1;;;1.3;;
63953;SDS011;50128;52.094;5.232;2022-09-21T09:52:03;5.2;;;1.0;;
63953;SDS011;50128;52.094;5.232;2022-09-21T09:53:41;4.8;;;1.11;;
63953;SDS011;50128;52.094;5.232;2022-09-21T09:55:19;3.9;;;0.9;;
63953;SDS011;50128;52.094;5.232;2022-09-21T09:58:41;4.91;;;0.9;;
63953;SDS011;50128;52.094;5.232;2022-09-21T10:00:24;4.2;;;1.11;;
63953;SDS011;50128;52.094;5.232;2022-09-21T10:02:02;5.9;;;1.2;;
63953;SDS011;50128;52.094;5.232;2022-09-21T10:03:41;4.7;;;1.0;;
63953;SDS011;50128;52.094;5.232;2022-09-21T10:06:58;4.2;;;0.9;;
63953;SDS011;50128;52.094;5.232;2022-09-21T10:08:39;3.8;;;0.9;;
63953;SDS011;50128;52.094;5.232;2022-09-21T10:10:33;4.0;;;0.9;;
63953;SDS011;50128;52.094;5.232;2022-09-21T10:12:14;5.8;;;1.0;;
63953;SDS011;50128;52.094;5.232;2022-09-21T10:15:47;4.1;;;0.9;;
63953;SDS011;50128;52.094;5.232;2022-09-21T10:17:25;3.1;;;1.0;;
63953;SDS011;50128;52.094;5.232;2022-09-21T10:19:02;4.61;;;1.2;;
63953;SDS011;50128;52.094;5.232;2022-09-21T10:20:38;3.9;;;0.9;;
63953;SDS011;50128;52.094;5.232;2022-09-21T10:22:29;4.1;;;0.9;;
63953;SDS011;50128;52.094;5.232;2022-09-21T10:25:54;4.41;;;1.0;;
63953;SDS011;50128;52.094;5.232;2022-09-21T10:27:34;3.8;;;0.9;;
63953;SDS011;50128;52.094;5.232;2022-09-21T10:29:18;4.3;;;1.11;;
63953;SDS011;50128;52.094;5.232;2022-09-21T10:31:07;4.7;;;1.11;;
63953;SDS011;50128;52.094;5.232;2022-09-21T10:32:58;4.61;;;0.9;;
63953;SDS011;50128;52.094;5.232;2022-09-21T10:36:20;4.41;;;0.8;;
63953;SDS011;50128;52.094;5.232;2022-09-21T10:38:09;3.6;;;0.8;;
63953;SDS011;50128;52.094;5.232;2022-09-21T10:39:51;4.0;;;0.8;;
63953;SDS011;50128;52.094;5.232;2022-09-21T10:41:27;3.6;;;0.9;;
63953;SDS011;50128;52.094;5.232;2022-09-21T10:44:41;3.6;;;1.0;;
63953;SDS011;50128;52.094;5.232;2022-09-21T10:46:31;4.1;;;0.9;;
63953;SDS011;50128;52.094;5.232;2022-09-21T10:48:11;3.8;;;0.9;;
63953;SDS011;50128;52.094;5.232;2022-09-21T10:49:51;2.7;;;0.6;;
63953;SDS011;50128;52.094;5.232;2022-09-21T10:53:10;5.2;;;0.9;;
63953;SDS011;50128;52.094;5.232;2022-09-21T10:54:54;8.4;;;1.2;;
63953;SDS011;50128;52.094;5.232;2022-09-21T10:56:31;4.2;;;0.9;;
63953;SDS011;50128;52.094;5.232;2022-09-21T10:58:08;6.1;;;0.8;;
63953;SDS011;50128;52.094;5.232;2022-09-21T11:01:22;4.1;;;0.9;;
63953;SDS011;50128;52.094;5.232;2022-09-21T11:03:41;3.8;;;0.8;;
63953;SDS011;50128;52.094;5.232;2022-09-21T11:05:53;4.7;;;1.0;;
63953;SDS011;50128;52.094;5.232;2022-09-21T11:07:36;3.9;;;0.6;;
63953;SDS011;50128;52.094;5.232;2022-09-21T11:09:18;3.3;;;0.8;;
63953;SDS011;50128;52.094;5.232;2022-09-21T11:11:07;4.3;;;0.8;;
63953;SDS011;50128;52.094;5.232;2022-09-21T11:12:59;4.8;;;0.9;;
63953;SDS011;50128;52.094;5.232;2022-09-21T11:14:55;4.8;;;0.9;;
63953;SDS011;50128;52.094;5.232;2022-09-21T11:18:24;4.61;;;1.2;;
63953;SDS011;50128;52.094;5.232;2022-09-21T11:20:20;3.3;;;0.8;;
63953;SDS011;50128;52.094;5.232;2022-09-21T11:22:04;4.0;;;0.9;;
63953;SDS011;50128;52.094;5.232;2022-09-21T11:23:48;2.9;;;0.7;;
63953;SDS011;50128;52.094;5.232;2022-09-21T11:25:42;3.3;;;0.7;;
63953;SDS011;50128;52.094;5.232;2022-09-21T11:27:26;2.8;;;0.7;;
63953;SDS011;50128;52.094;5.232;2022-09-21T11:31:17;3.4;;;0.7;;
63953;SDS011;50128;52.094;5.232;2022-09-21T11:33:22;3.9;;;0.8;;
63953;SDS011;50128;52.094;5.232;2022-09-21T11:35:17;3.0;;;0.8;;
63953;SDS011;50128;52.094;5.232;2022-09-21T11:37:39;2.0;;;0.5;;
63953;SDS011;50128;52.094;5.232;2022-09-21T11:39:28;3.4;;;0.9;;
63953;SDS011;50128;52.094;5.232;2022-09-21T11:41:22;3.5;;;0.7;;
63953;SDS011;50128;52.094;5.232;2022-09-21T11:44:18;5.11;;;1.0;;
63953;SDS011;50128;52.094;5.232;2022-09-21T11:46:11;4.0;;;0.9;;
63953;SDS011;50128;52.094;5.232;2022-09-21T11:49:55;3.4;;;1.0;;
63953;SDS011;50128;52.094;5.232;2022-09-21T11:51:52;3.4;;;1.0;;
63953;SDS011;50128;52.094;5.232;2022-09-21T11:53:59;2.9;;;0.8;;
63953;SDS011;50128;52.094;5.232;2022-09-21T11:56:07;3.5;;;1.0;;
63953;SDS011;50128;52.094;5.232;2022-09-21T11:58:14;3.9;;;0.9;;
63953;SDS011;50128;52.094;5.232;2022-09-21T12:00:03;4.2;;;0.9;;
63953;SDS011;50128;52.094;5.232;2022-09-21T12:01:50;3.1;;;0.9;;
63953;SDS011;50128;52.094;5.232;2022-09-21T12:03:56;3.8;;;0.7;;
63953;SDS011;50128;52.094;5.232;2022-09-21T12:08:11;2.9;;;0.9;;
63953;SDS011;50128;52.094;5.232;2022-09-21T12:10:29;3.0;;;0.7;;
63953;SDS011;50128;52.094;5.232;2022-09-21T12:12:13;2.6;;;0.6;;
63953;SDS011;50128;52.094;5.232;2022-09-21T12:13:56;3.1;;;0.7;;
63953;SDS011;50128;52.094;5.232;2022-09-21T12:15:43;2.9;;;0.8;;
63953;SDS011;50128;52.094;5.232;2022-09-21T12:19:17;3.1;;;0.6;;
63953;SDS011;50128;52.094;5.232;2022-09-21T12:21:04;4.5;;;0.7;;
63953;SDS011;50128;52.094;5.232;2022-09-21T12:22:48;3.2;;;0.7;;
63953;SDS011;50128;52.094;5.232;2022-09-21T12:24:38;5.5;;;1.2;;
63953;SDS011;50128;52.094;5.232;2022-09-21T12:26:19;3.4;;;0.9;;
63953;SDS011;50128;52.094;5.232;2022-09-21T12:28:03;4.0;;;1.0;;
63953;SDS011;50128;52.094;5.232;2022-09-21T12:31:32;3.0;;;0.6;;
63953;SDS011;50128;52.094;5.232;2022-09-21T12:33:21;2.5;;;0.6;;
63953;SDS011;50128;52.094;5.232;2022-09-21T12:35:08;4.41;;;0.9;;
63953;SDS011;50128;52.094;5.232;2022-09-21T12:36:57;4.0;;;0.8;;
63953;SDS011;50128;52.094;5.232;2022-09-21T12:38:47;3.6;;;0.8;;
63953;SDS011;50128;52.094;5.232;2022-09-21T12:40:36;3.4;;;0.9;;
63953;SDS011;50128;52.094;5.232;2022-09-21T12:44:08;4.91;;;1.11;;
63953;SDS011;50128;52.094;5.232;2022-09-21T12:45:54;2.8;;;0.8;;
63953;SDS011;50128;52.094;5.232;2022-09-21T12:47:43;3.7;;;0.8;;
63953;SDS011;50128;52.094;5.232;2022-09-21T12:49:29;3.3;;;0.7;;
63953;SDS011;50128;52.094;5.232;2022-09-21T12:51:10;3.5;;;0.7;;
63953;SDS011;50128;52.094;5.232;2022-09-21T12:54:31;3.6;;;0.9;;
63953;SDS011;50128;52.094;5.232;2022-09-21T12:56:23;2.7;;;0.6;;
63953;SDS011;50128;52.094;5.232;2022-09-21T12:58:16;4.1;;;0.8;;
63953;SDS011;50128;52.094;5.232;2022-09-21T13:00:06;8.31;;;1.0;;
63953;SDS011;50128;52.094;5.232;2022-09-21T13:01:48;3.9;;;0.8;;
63953;SDS011;50128;52.094;5.232;2022-09-21T13:03:32;3.3;;;1.11;;
63953;SDS011;50128;52.094;5.232;2022-09-21T13:07:12;3.3;;;0.9;;
63953;SDS011;50128;52.094;5.232;2022-09-21T13:09:43;4.5;;;0.8;;
63953;SDS011;50128;52.094;5.232;2022-09-21T13:11:21;5.6;;;1.4;;
63953;SDS011;50128;52.094;5.232;2022-09-21T13:12:59;4.91;;;1.6;;
63953;SDS011;50128;52.094;5.232;2022-09-21T13:14:40;3.8;;;1.0;;
63953;SDS011;50128;52.094;5.232;2022-09-21T13:16:22;3.8;;;0.9;;